Delta, Utah Weather observations

Data are for observation ending at time listed.
 Day   Time    Ave.   Ave.  Ave.  Vector   Max.   Stn.    Total    Solar   Ave.  
  of    of     Air    Rel.  Wind   Wind    Wind   Baro.  Precip.   Rad.    Soil  
Year   Day     Temp.  Hum.  Speed  Dir.    Gust   Pres.                    Temp. 
2014   (MST)    F      %     mph   deg.    mph     mb.     in.     W/m2     F   
------------------------------------------------------------------------------
 112    3:30   56.9    38    1.3   141      2.4   855.2    0.00       0    67.0
 112    3:40   56.7    38    2.2   140      4.1   855.1    0.00       0    66.7
 112    3:50   56.9    38    3.3   143      5.9   854.9    0.00       0    66.5
 112    4:00   57.6    36    4.4   157      6.4   854.8    0.00       0    66.4
 112    4:10   58.5    34    4.9   167      7.3   854.7    0.00       0    66.4
 112    4:20   59.4    33    5.5   168      9.3   854.6    0.00       0    66.8
 112    4:30   60.2    32    5.2   171      8.7   854.5    0.00       0    67.6
 112    4:40   59.8    32    4.7   178      8.3   854.3    0.00       0    68.5
 112    4:50   58.8    34    4.4   186      8.0   854.2    0.00       0    69.1
 112    5:00   58.2    34    5.0   184      9.0   854.1    0.00       0    69.3
 112    5:10   58.2    34    5.3   183      9.9   854.0    0.00       0    69.2
 112    5:20   57.2    36    4.7   163      6.9   854.0    0.00       0    68.9
 112    5:30   56.6    37    4.4   177      6.9   853.9    0.00       0    68.4
 112    5:40   57.0    37    3.9   169      7.4   853.9    0.00       0    67.9
 112    5:50   56.1    38    4.4   171      8.1   853.9    0.00       0    67.4
 112    6:00   56.5    37    4.3   166      6.5   853.8    0.00       5    66.9
 112    6:10   57.2    36    4.3   171      6.9   853.8    0.00      12    66.6
 112    6:20   57.7    35    4.8   171      7.3   853.7    0.00      20    66.6
 112    6:30   57.8    35    5.2   168      7.8   853.7    0.00      27    66.7
 112    6:40   57.8    35    5.0   168      7.1   853.7    0.00      33    67.0
 112    6:50   57.7    35    4.9   172      7.5   853.7    0.00      42    67.3
 112    7:00   57.5    36    5.2   167      7.7   853.6    0.00      59    67.8
 112    7:10   58.0    35    5.4   169      8.6   853.5    0.00      72    68.1
 112    7:20   58.6    34    5.8   170      9.6   853.4    0.00      81    68.5
 112    7:30   59.2    34    5.2   170      8.2   853.4    0.00      94    69.3
 112    7:40   60.2    32    5.5   188      8.7   853.4    0.00     102    70.4
 112    7:50   60.2    33    5.2   188      9.7   853.3    0.00     108    71.6
 112    8:00   60.6    32    4.8   189      7.7   853.1    0.00     115    72.8
 112    8:10   60.8    32    3.4   183      6.2   853.0    0.00     113    73.8
 112    8:20   60.8    34    3.4   160      5.4   852.9    0.00      98    74.8
 112    8:30   61.8    33    5.3   162      9.7   852.7    0.00     113    75.6
 112    8:40   63.2    29    5.5   166      8.0   852.6    0.00     137    76.5
 112    8:50   63.6    29    4.4   171      7.2   852.5    0.00     132    77.6
 112    9:00   63.8    31    4.2   172      6.7   852.4    0.00     151    78.9
 112    9:10   65.0    30    5.2   185      8.2   852.3    0.00     170    80.3
 112    9:20   66.5    27    7.0   185     13.2   852.2    0.00     256    81.9
 112    9:30   67.7    26    9.7   191     17.6   852.0    0.00     295    84.1
 112    9:40   68.7    25   12.1   193     21.3   851.9    0.00     284    86.4
 112    9:50   68.4    25   12.1   195     25.1   851.9    0.00     205    88.4
 112   10:00   68.1    25   14.1   192     24.0   851.7    0.00     215    89.8
 112   10:10   68.3    25   12.4   192     20.9   851.5    0.00     239    90.6
 112   10:20   68.5    25   12.3   194     24.0   851.4    0.00     240    91.2
 112   10:30   68.6    25   13.1   195     21.9   851.1    0.00     231    91.8
 112   10:40   68.8    25   11.8   192     20.4   850.9    0.00     224    92.3
 112   10:50   69.1    25   12.0   188     22.8   850.7    0.00     235    92.6
 112   11:00   69.4    24   13.6   189     22.1   850.5    0.00     217    93.1
 112   11:10   69.5    24   13.6   192     24.2   850.2    0.00     255    93.3
 112   11:20   70.2    23   15.4   189     24.3   849.9    0.00     291    93.7
 112   11:30   70.8    23   13.6   193     24.5   849.6    0.00     375    94.3
 112   11:40   71.5    23   13.8   188     24.8   849.3    0.00     349    95.1
 112   11:50   71.2    23   12.3   188     21.8   849.1    0.00     234    95.8
 112   12:00   71.1    23   13.9   186     23.0   848.9    0.00     210    96.0
 112   12:10   71.0    22   14.2   189     22.6   848.7    0.00     192    96.0
 112   12:20   71.0    23   12.1   192     22.4   848.5    0.00     175    95.8
 112   12:30   70.8    23   11.7   194     22.1   848.4    0.00     179    95.7
 112   12:40   71.0    22   12.6   194     22.4   848.3    0.00     208    95.6
 112   12:50   71.2    22   13.5   192     23.9   848.1    0.00     260    95.6
 112   13:00   71.5    21   14.2   191     27.3   847.9    0.00     262    95.8
 112   13:10   71.8    21   15.6   193     30.5   847.8    0.00     401    95.9
 112   13:20   72.5    21   15.0   193     27.1   847.7    0.00     417    96.5
 112   13:30   72.4    20   16.9   194     32.7   847.6    0.00     360    97.5
 112   13:40   72.3    20   16.1   193     25.7   847.6    0.00     322    98.1
 112   13:50   72.4    19   16.5   194     27.8   847.4    0.00     337    98.4
 112   14:00   72.6    19   17.5   194     28.7   847.3    0.00     383    98.6
 112   14:10   72.8    19   17.1   192     37.2   847.0    0.00     367    98.9
 112   14:20   73.3    19   13.5   194     26.7   846.8    0.00     370    99.3
 112   14:30   73.7    18   15.3   197     27.6   846.6    0.00     472    99.9
 112   14:40   73.8    18   16.1   196     30.0   846.4    0.00     454    100.6
 112   14:50   73.9    17   17.6   197     31.4   846.3    0.00     355    101.3
 112   15:00   73.1    18   16.3   190     28.5   846.2    0.00     273    101.5
 112   15:10   73.2    18   16.8   203     25.4   846.1    0.00     353    101.2
 112   15:20   73.8    17   17.8   194     28.7   845.9    0.00     438    101.1
 112   15:30   74.4    17   16.4   201     29.3   845.9    0.00     329    101.6
 112   15:40   73.5    17   16.2   195     28.4   845.9    0.00     301    102.2
 112   15:50   74.0    17   14.4   198     31.9   845.9    0.00     321    102.3
 112   16:00   73.6    15   14.9   212     23.4   845.9    0.00     334    102.2
 112   16:10   73.4    14   17.3   206     26.6   845.8    0.00     360    101.7
 112   16:20   73.8    14   16.4   203     27.2   845.7    0.00     313    101.1
 112   16:30   73.8    14   16.0   198     29.1   845.8    0.00     295    100.9
 112   16:40   73.1    13   16.7   209     32.3   845.8    0.00     261    100.5
 112   16:50   72.7    13   16.1   208     27.8   845.7    0.00     229    99.8
 112   17:00   72.4    13   16.0   212     26.3   845.8    0.00     158    99.0
 112   17:10   71.9    13   17.8   210     28.2   845.9    0.00     116    98.3
 112   17:20   71.1    13   15.3   208     28.4   846.0    0.00      54    97.1
 112   17:30   70.5    13   15.7   211     27.2   846.1    0.00      38    95.6
 112   17:40   70.0    12   15.9   210     27.3   846.4    0.00      30    94.0
 112   17:50   65.4    22   12.8   264     25.8   847.3    0.00      37    92.5
 112   18:00   60.2    30   10.3   305     21.5   848.0    0.00      63    89.5
 112   18:10   58.8    32    9.0   316     17.9   848.6    0.00      48    85.6
 112   18:20   55.7    36    9.1   336     18.3   848.9    0.00      36    81.4
 112   18:30   54.0    39   11.8   345     22.9   849.2    0.00      31    76.8
 112   18:40   53.2    40   11.9   341     21.5   849.6    0.00      37    72.5
 112   18:50   52.8    40   11.2   346     24.8   849.8    0.00      27    69.0
 112   19:00   51.8    42   11.5   342     22.3   850.0    0.00      11    66.1
 112   19:10   50.9    42   11.2   342     18.8   850.1    0.00       6    63.5
 112   19:20   50.3    44    8.6   344     17.8   850.4    0.00       1    61.1
 112   19:30   49.7    45    8.7   350     18.3   850.6    0.00       0    59.0
 112   19:40   49.3    47    8.5   359     19.5   850.7    0.00       0    57.2
 112   19:50   49.0    48   10.5   359     21.4   851.1    0.00       0    55.7
 112   20:00   48.7    48    9.2     1     17.1   851.4    0.00       0    54.5
 112   20:10   48.6    48    8.0     0     16.8   851.8    0.00       0    53.5
 112   20:20   48.5    48    8.2     4     17.0   852.0    0.00       0    52.7
 112   20:30   48.6    48    8.0     1     14.2   852.5    0.00       0    52.1
 112   20:40   48.7    47    6.9   354     13.8   852.9    0.00       0    51.9
 112   20:50   48.6    46    6.8   358     14.2   853.1    0.00       0    51.8
 112   21:00   48.2    49    6.6     2     11.5   853.3    0.00       0    51.7
 112   21:10   47.1    55    7.6     3     16.1   853.5    0.00       0    51.2
 112   21:20   45.9    57    6.9     6     12.3   853.6    0.00       0    50.5
 112   21:30   45.8    57    4.6    13      8.9   854.0    0.00       0    49.4
 112   21:40   45.7    56    4.7    11     10.5   854.2    0.00       0    48.2
 112   21:50   45.7    54    5.3     3     10.3   854.2    0.00       0    47.2
 112   22:00   45.6    54    5.0   356      9.9   854.2    0.00       0    46.4
 112   22:10   45.2    54    3.5     9      7.1   854.3    0.00       0    45.7
 112   22:20   44.7    54    3.1     1      5.3   854.3    0.00       0    45.0
 112   22:30   44.6    53    2.9   356      5.5   854.4    0.00       0    44.5
 112   22:40   44.2    55    1.4    27      2.9   854.7    0.00       0    43.8
 112   22:50   43.7    54    1.6    49      3.4   854.9    0.00       0    43.2
 112   23:00   43.6    54    1.7   359      3.7   855.0    0.00       0    42.6
 112   23:10   43.4    54    1.0     3      2.8   855.1    0.00       0    42.1
 112   23:20   43.0    55    0.6    23      1.4   855.2    0.00       0    41.5
 112   23:30   42.9    58    0.4   333      1.4   855.3    0.00       0    41.0
 112   23:40   42.6    58    0.6   327      2.1   855.3    0.00       0    40.5
 112   23:50   42.0    60    1.5   327      3.3   855.3    0.00       0    40.0
 113    0:00   41.8    59    2.1   317      5.0   855.4    0.00       0    39.3
 113    0:10   42.1    59    2.3   302      5.0   855.7    0.00       0    38.7
 113    0:20   41.9    58    2.7   292      6.3   855.8    0.00       0    38.3
 113    0:30   41.1    60    2.3   302      5.4   855.8    0.00       0    38.1
 113    0:40   40.5    62    2.5   316      5.1   855.9    0.00       0    37.9
 113    0:50   40.2    62    2.2   321      4.7   855.9    0.00       0    37.7
 113    1:00   39.8    64    2.0   322      4.2   856.0    0.00       0    37.4
 113    1:10   39.4    64    2.1   337      4.3   856.3    0.00       0    37.0
 113    1:20   39.3    64    2.5   349      4.7   856.2    0.00       0    36.5
 113    1:30   39.0    64    2.3   352      4.1   856.1    0.00       0    36.1
 113    1:40   38.8    64    2.1   343      4.5   856.1    0.00       0    35.6
 113    1:50   38.5    65    1.6   330      4.1   856.1    0.00       0    35.2
 113    2:00   38.3    66    1.7   334      4.0   856.0    0.00       0    34.9
 113    2:10   38.4    68    1.9   335      3.7   856.0    0.00       0    34.5
 113    2:20   38.5    68    1.7   342      3.2   856.0    0.00       0    34.2
 113    2:30   38.5    68    1.6   358      3.1   856.1    0.00       0    34.0
 113    2:40   38.0    68    1.3   349      3.2   856.1    0.00       0    33.7
 113    2:50   37.9    69    2.6   360      6.6   856.2    0.00       0    33.3
 113    3:00   37.7    68    2.6   344      5.1   856.3    0.00       0    32.9
 113    3:10   37.4    68    2.5   337      6.1   856.3    0.00       0    32.6
 113    3:20   37.3    69    2.7   345      5.6   856.4    0.00       0    32.3

Return to Delta, Utah graphs page.


Western Regional Climate Center,wrcc@dri.edu